sensor_id;sensor_type;location;lat;lon;timestamp;temperature;humidity
25108;DHT22;13090;53.422;7.670;2023-02-28T00:01:50;8.00;73.40
25108;DHT22;13090;53.422;7.670;2023-02-28T00:06:53;8.00;73.30
25108;DHT22;13090;53.422;7.670;2023-02-28T00:11:56;8.00;73.30
25108;DHT22;13090;53.422;7.670;2023-02-28T00:16:58;8.00;73.40
25108;DHT22;13090;53.422;7.670;2023-02-28T00:22:01;8.00;73.30
25108;DHT22;13090;53.422;7.670;2023-02-28T00:27:04;8.00;73.40
25108;DHT22;13090;53.422;7.670;2023-02-28T00:32:06;8.00;73.60
25108;DHT22;13090;53.422;7.670;2023-02-28T00:37:09;8.00;73.60
25108;DHT22;13090;53.422;7.670;2023-02-28T00:42:14;8.00;73.40
25108;DHT22;13090;53.422;7.670;2023-02-28T00:47:16;8.00;73.60
25108;DHT22;13090;53.422;7.670;2023-02-28T00:52:18;7.90;73.60
25108;DHT22;13090;53.422;7.670;2023-02-28T00:57:22;7.90;73.70
25108;DHT22;13090;53.422;7.670;2023-02-28T01:02:24;7.80;74.00
25108;DHT22;13090;53.422;7.670;2023-02-28T01:07:27;7.80;74.30
25108;DHT22;13090;53.422;7.670;2023-02-28T01:12:30;7.80;74.10
25108;DHT22;13090;53.422;7.670;2023-02-28T01:17:32;7.70;74.30
25108;DHT22;13090;53.422;7.670;2023-02-28T01:22:35;7.60;74.10
25108;DHT22;13090;53.422;7.670;2023-02-28T01:27:38;7.60;74.10
25108;DHT22;13090;53.422;7.670;2023-02-28T01:32:40;7.50;74.30
25108;DHT22;13090;53.422;7.670;2023-02-28T01:37:43;7.50;74.40
25108;DHT22;13090;53.422;7.670;2023-02-28T01:42:46;7.40;74.90
25108;DHT22;13090;53.422;7.670;2023-02-28T01:47:50;7.40;75.30
25108;DHT22;13090;53.422;7.670;2023-02-28T01:52:56;7.50;75.40
25108;DHT22;13090;53.422;7.670;2023-02-28T01:58:03;7.50;75.30
25108;DHT22;13090;53.422;7.670;2023-02-28T02:03:06;7.50;75.40
25108;DHT22;13090;53.422;7.670;2023-02-28T02:08:12;7.60;76.10
25108;DHT22;13090;53.422;7.670;2023-02-28T02:13:41;7.60;74.70
25108;DHT22;13090;53.422;7.670;2023-02-28T02:18:52;7.60;75.90
25108;DHT22;13090;53.422;7.670;2023-02-28T02:24:21;7.60;75.50
25108;DHT22;13090;53.422;7.670;2023-02-28T02:29:44;7.70;76.20
25108;DHT22;13090;53.422;7.670;2023-02-28T02:34:57;7.70;75.30
25108;DHT22;13090;53.422;7.670;2023-02-28T02:40:11;7.70;75.40
25108;DHT22;13090;53.422;7.670;2023-02-28T02:45:19;7.70;75.60
25108;DHT22;13090;53.422;7.670;2023-02-28T02:50:30;7.70;75.40
25108;DHT22;13090;53.422;7.670;2023-02-28T02:55:36;7.70;75.70
25108;DHT22;13090;53.422;7.670;2023-02-28T03:00:42;7.70;75.60
25108;DHT22;13090;53.422;7.670;2023-02-28T03:05:49;7.70;75.70
25108;DHT22;13090;53.422;7.670;2023-02-28T03:10:56;7.70;75.80
25108;DHT22;13090;53.422;7.670;2023-02-28T03:16:21;7.70;76.00
25108;DHT22;13090;53.422;7.670;2023-02-28T03:21:30;7.70;76.30
25108;DHT22;13090;53.422;7.670;2023-02-28T03:26:38;7.70;76.00
25108;DHT22;13090;53.422;7.670;2023-02-28T03:31:44;7.70;76.10
25108;DHT22;13090;53.422;7.670;2023-02-28T03:36:53;7.70;76.20
25108;DHT22;13090;53.422;7.670;2023-02-28T03:41:59;7.60;76.30
25108;DHT22;13090;53.422;7.670;2023-02-28T03:47:04;7.60;76.10
25108;DHT22;13090;53.422;7.670;2023-02-28T03:52:14;7.60;76.30
25108;DHT22;13090;53.422;7.670;2023-02-28T03:57:25;7.60;76.50
25108;DHT22;13090;53.422;7.670;2023-02-28T04:02:30;7.60;76.70
25108;DHT22;13090;53.422;7.670;2023-02-28T04:07:33;7.60;76.50
25108;DHT22;13090;53.422;7.670;2023-02-28T04:12:36;7.60;76.50
25108;DHT22;13090;53.422;7.670;2023-02-28T04:17:38;7.50;76.50
25108;DHT22;13090;53.422;7.670;2023-02-28T04:22:42;7.40;76.60
25108;DHT22;13090;53.422;7.670;2023-02-28T04:27:44;7.30;77.00
25108;DHT22;13090;53.422;7.670;2023-02-28T04:32:46;7.20;77.00
25108;DHT22;13090;53.422;7.670;2023-02-28T04:37:49;7.20;77.20
25108;DHT22;13090;53.422;7.670;2023-02-28T04:42:52;7.20;77.80
25108;DHT22;13090;53.422;7.670;2023-02-28T04:47:54;7.10;77.80
25108;DHT22;13090;53.422;7.670;2023-02-28T04:52:58;7.10;77.60
25108;DHT22;13090;53.422;7.670;2023-02-28T04:58:00;7.00;77.80
25108;DHT22;13090;53.422;7.670;2023-02-28T05:03:02;6.90;77.70
25108;DHT22;13090;53.422;7.670;2023-02-28T05:08:06;6.90;77.80
25108;DHT22;13090;53.422;7.670;2023-02-28T05:13:11;6.90;78.10
25108;DHT22;13090;53.422;7.670;2023-02-28T05:18:13;7.00;78.20
25108;DHT22;13090;53.422;7.670;2023-02-28T05:23:18;7.00;78.00
25108;DHT22;13090;53.422;7.670;2023-02-28T05:28:21;7.10;78.10
25108;DHT22;13090;53.422;7.670;2023-02-28T05:33:24;7.10;78.20
25108;DHT22;13090;53.422;7.670;2023-02-28T05:38:27;7.10;78.00
25108;DHT22;13090;53.422;7.670;2023-02-28T05:43:29;7.10;78.20
25108;DHT22;13090;53.422;7.670;2023-02-28T05:48:32;7.20;78.20
25108;DHT22;13090;53.422;7.670;2023-02-28T05:53:36;7.20;78.20
25108;DHT22;13090;53.422;7.670;2023-02-28T05:58:38;7.20;78.40
25108;DHT22;13090;53.422;7.670;2023-02-28T06:03:40;7.10;78.20
25108;DHT22;13090;53.422;7.670;2023-02-28T06:08:44;7.00;78.00
25108;DHT22;13090;53.422;7.670;2023-02-28T06:13:46;7.00;78.20
25108;DHT22;13090;53.422;7.670;2023-02-28T06:18:48;6.90;78.10
25108;DHT22;13090;53.422;7.670;2023-02-28T06:23:52;6.80;78.90
25108;DHT22;13090;53.422;7.670;2023-02-28T06:28:54;6.70;79.30
25108;DHT22;13090;53.422;7.670;2023-02-28T06:34:00;6.60;79.30
25108;DHT22;13090;53.422;7.670;2023-02-28T06:39:04;6.60;79.80
25108;DHT22;13090;53.422;7.670;2023-02-28T06:44:12;6.60;79.70
25108;DHT22;13090;53.422;7.670;2023-02-28T06:49:14;6.60;80.20
25108;DHT22;13090;53.422;7.670;2023-02-28T06:54:18;6.60;80.10
25108;DHT22;13090;53.422;7.670;2023-02-28T06:59:21;6.70;80.90
25108;DHT22;13090;53.422;7.670;2023-02-28T07:04:23;7.20;82.10
25108;DHT22;13090;53.422;7.670;2023-02-28T07:09:27;8.10;82.60
25108;DHT22;13090;53.422;7.670;2023-02-28T07:14:29;9.10;82.10
25108;DHT22;13090;53.422;7.670;2023-02-28T07:19:31;10.10;80.70
25108;DHT22;13090;53.422;7.670;2023-02-28T07:24:35;11.10;79.10
25108;DHT22;13090;53.422;7.670;2023-02-28T07:29:37;12.00;77.20
25108;DHT22;13090;53.422;7.670;2023-02-28T07:34:39;12.60;76.20
25108;DHT22;13090;53.422;7.670;2023-02-28T07:39:43;13.40;75.10
25108;DHT22;13090;53.422;7.670;2023-02-28T07:44:45;14.10;73.50
25108;DHT22;13090;53.422;7.670;2023-02-28T07:49:48;14.80;72.20
25108;DHT22;13090;53.422;7.670;2023-02-28T07:54:52;15.30;70.70
25108;DHT22;13090;53.422;7.670;2023-02-28T07:59:54;15.50;67.20
25108;DHT22;13090;53.422;7.670;2023-02-28T08:04:56;15.50;67.10
25108;DHT22;13090;53.422;7.670;2023-02-28T08:10:00;15.60;67.50
25108;DHT22;13090;53.422;7.670;2023-02-28T08:15:03;15.90;67.30
25108;DHT22;13090;53.422;7.670;2023-02-28T08:20:06;16.30;67.70
25108;DHT22;13090;53.422;7.670;2023-02-28T08:25:10;16.70;66.80
25108;DHT22;13090;53.422;7.670;2023-02-28T08:30:13;17.20;64.80
25108;DHT22;13090;53.422;7.670;2023-02-28T08:35:16;17.40;64.70
25108;DHT22;13090;53.422;7.670;2023-02-28T08:40:20;17.90;63.80
25108;DHT22;13090;53.422;7.670;2023-02-28T08:45:22;18.30;62.60
25108;DHT22;13090;53.422;7.670;2023-02-28T08:50:24;18.40;61.50
25108;DHT22;13090;53.422;7.670;2023-02-28T08:55:28;18.50;60.30
25108;DHT22;13090;53.422;7.670;2023-02-28T09:00:30;18.20;57.80
25108;DHT22;13090;53.422;7.670;2023-02-28T09:05:32;17.50;57.60
25108;DHT22;13090;53.422;7.670;2023-02-28T09:10:36;16.70;58.00
25108;DHT22;13090;53.422;7.670;2023-02-28T09:15:38;16.00;58.40
25108;DHT22;13090;53.422;7.670;2023-02-28T09:20:41;15.30;59.30
25108;DHT22;13090;53.422;7.670;2023-02-28T09:25:50;14.90;61.40
25108;DHT22;13090;53.422;7.670;2023-02-28T09:30:54;15.20;63.40
25108;DHT22;13090;53.422;7.670;2023-02-28T09:36:00;16.00;65.60
25108;DHT22;13090;53.422;7.670;2023-02-28T09:41:11;17.00;63.80
25108;DHT22;13090;53.422;7.670;2023-02-28T09:46:31;18.10;64.60
25108;DHT22;13090;53.422;7.670;2023-02-28T09:51:44;19.10;61.20
25108;DHT22;13090;53.422;7.670;2023-02-28T09:56:51;19.50;58.40
25108;DHT22;13090;53.422;7.670;2023-02-28T10:01:58;19.30;56.10
25108;DHT22;13090;53.422;7.670;2023-02-28T10:07:11;18.70;55.40
25108;DHT22;13090;53.422;7.670;2023-02-28T10:12:20;18.00;55.90
25108;DHT22;13090;53.422;7.670;2023-02-28T10:17:26;17.50;56.20
25108;DHT22;13090;53.422;7.670;2023-02-28T10:22:35;17.00;57.30
25108;DHT22;13090;53.422;7.670;2023-02-28T10:27:42;17.10;59.20
25108;DHT22;13090;53.422;7.670;2023-02-28T10:32:50;17.50;59.00
25108;DHT22;13090;53.422;7.670;2023-02-28T10:37:55;18.10;58.90
25108;DHT22;13090;53.422;7.670;2023-02-28T10:43:01;18.70;58.90
25108;DHT22;13090;53.422;7.670;2023-02-28T10:48:05;19.40;57.70
25108;DHT22;13090;53.422;7.670;2023-02-28T10:53:22;20.00;56.90
25108;DHT22;13090;53.422;7.670;2023-02-28T10:58:30;20.50;54.70
25108;DHT22;13090;53.422;7.670;2023-02-28T11:03:34;20.80;53.10
25108;DHT22;13090;53.422;7.670;2023-02-28T11:08:45;20.60;52.20
25108;DHT22;13090;53.422;7.670;2023-02-28T11:13:52;20.10;50.80
25108;DHT22;13090;53.422;7.670;2023-02-28T11:18:55;19.60;51.20
25108;DHT22;13090;53.422;7.670;2023-02-28T11:24:02;19.40;52.00
25108;DHT22;13090;53.422;7.670;2023-02-28T11:29:16;19.30;51.60
25108;DHT22;13090;53.422;7.670;2023-02-28T11:34:27;19.20;50.60
25108;DHT22;13090;53.422;7.670;2023-02-28T11:39:30;19.30;49.40
25108;DHT22;13090;53.422;7.670;2023-02-28T11:44:45;19.30;51.20
25108;DHT22;13090;53.422;7.670;2023-02-28T11:50:01;19.30;49.00
25108;DHT22;13090;53.422;7.670;2023-02-28T11:55:14;18.90;46.10
25108;DHT22;13090;53.422;7.670;2023-02-28T12:00:31;17.90;44.80
25108;DHT22;13090;53.422;7.670;2023-02-28T12:05:42;16.80;48.20
25108;DHT22;13090;53.422;7.670;2023-02-28T12:10:58;16.20;50.70
25108;DHT22;13090;53.422;7.670;2023-02-28T12:16:39;16.00;51.50
25108;DHT22;13090;53.422;7.670;2023-02-28T12:27:16;15.80;51.50
25108;DHT22;13090;53.422;7.670;2023-02-28T12:32:25;15.70;52.10
25108;DHT22;13090;53.422;7.670;2023-02-28T12:37:33;15.80;52.00
25108;DHT22;13090;53.422;7.670;2023-02-28T12:42:42;15.90;52.60
25108;DHT22;13090;53.422;7.670;2023-02-28T12:47:52;16.20;52.90
25108;DHT22;13090;53.422;7.670;2023-02-28T12:53:00;16.70;52.30
25108;DHT22;13090;53.422;7.670;2023-02-28T12:58:10;17.00;50.50
25108;DHT22;13090;53.422;7.670;2023-02-28T13:03:49;16.80;50.30
25108;DHT22;13090;53.422;7.670;2023-02-28T13:09:05;16.80;49.60
25108;DHT22;13090;53.422;7.670;2023-02-28T13:14:26;16.80;49.50
25108;DHT22;13090;53.422;7.670;2023-02-28T13:19:32;16.60;49.60
25108;DHT22;13090;53.422;7.670;2023-02-28T13:24:53;16.50;50.70
25108;DHT22;13090;53.422;7.670;2023-02-28T13:29:56;16.80;49.40
25108;DHT22;13090;53.422;7.670;2023-02-28T13:35:36;16.70;45.10
25108;DHT22;13090;53.422;7.670;2023-02-28T13:40:39;16.10;47.50
25108;DHT22;13090;53.422;7.670;2023-02-28T13:46:08;15.80;48.60
25108;DHT22;13090;53.422;7.670;2023-02-28T13:51:42;15.70;49.00
25108;DHT22;13090;53.422;7.670;2023-02-28T13:56:55;15.80;48.80
25108;DHT22;13090;53.422;7.670;2023-02-28T14:07:50;15.60;49.00
25108;DHT22;13090;53.422;7.670;2023-02-28T14:13:00;15.60;49.30
25108;DHT22;13090;53.422;7.670;2023-02-28T14:18:11;15.60;49.20
25108;DHT22;13090;53.422;7.670;2023-02-28T14:23:33;15.30;47.50
25108;DHT22;13090;53.422;7.670;2023-02-28T14:28:49;15.10;48.30
25108;DHT22;13090;53.422;7.670;2023-02-28T14:34:13;14.80;46.50
25108;DHT22;13090;53.422;7.670;2023-02-28T14:39:22;14.50;45.40
25108;DHT22;13090;53.422;7.670;2023-02-28T14:44:27;14.00;44.80
25108;DHT22;13090;53.422;7.670;2023-02-28T14:49:32;13.50;44.90
25108;DHT22;13090;53.422;7.670;2023-02-28T14:54:38;12.90;45.30
25108;DHT22;13090;53.422;7.670;2023-02-28T14:59:40;12.70;48.30
25108;DHT22;13090;53.422;7.670;2023-02-28T15:04:42;12.70;49.00
25108;DHT22;13090;53.422;7.670;2023-02-28T15:09:46;12.80;49.90
25108;DHT22;13090;53.422;7.670;2023-02-28T15:14:48;13.00;51.10
25108;DHT22;13090;53.422;7.670;2023-02-28T15:19:53;13.20;51.60
25108;DHT22;13090;53.422;7.670;2023-02-28T15:24:58;13.40;51.70
25108;DHT22;13090;53.422;7.670;2023-02-28T15:30:05;13.50;51.80
25108;DHT22;13090;53.422;7.670;2023-02-28T15:35:20;13.50;52.00
25108;DHT22;13090;53.422;7.670;2023-02-28T15:40:31;13.50;51.80
25108;DHT22;13090;53.422;7.670;2023-02-28T15:45:37;13.40;51.70
25108;DHT22;13090;53.422;7.670;2023-02-28T15:50:40;13.30;51.70
25108;DHT22;13090;53.422;7.670;2023-02-28T15:55:44;13.20;51.40
25108;DHT22;13090;53.422;7.670;2023-02-28T16:01:05;13.10;51.10
25108;DHT22;13090;53.422;7.670;2023-02-28T16:06:32;12.80;50.20
25108;DHT22;13090;53.422;7.670;2023-02-28T16:11:39;12.50;50.20
25108;DHT22;13090;53.422;7.670;2023-02-28T16:16:43;12.10;50.50
25108;DHT22;13090;53.422;7.670;2023-02-28T16:21:46;11.80;50.60
25108;DHT22;13090;53.422;7.670;2023-02-28T16:26:52;11.50;50.80
25108;DHT22;13090;53.422;7.670;2023-02-28T16:31:56;11.30;50.20
25108;DHT22;13090;53.422;7.670;2023-02-28T16:36:58;11.00;51.00
25108;DHT22;13090;53.422;7.670;2023-02-28T16:42:02;10.80;51.60
25108;DHT22;13090;53.422;7.670;2023-02-28T16:47:04;10.60;52.00
25108;DHT22;13090;53.422;7.670;2023-02-28T16:52:07;10.50;52.30
25108;DHT22;13090;53.422;7.670;2023-02-28T16:57:21;10.50;52.10
25108;DHT22;13090;53.422;7.670;2023-02-28T17:07:33;10.20;52.40
25108;DHT22;13090;53.422;7.670;2023-02-28T17:12:37;10.00;52.50
25108;DHT22;13090;53.422;7.670;2023-02-28T17:17:40;9.90;52.80
25108;DHT22;13090;53.422;7.670;2023-02-28T17:22:43;9.80;53.10
25108;DHT22;13090;53.422;7.670;2023-02-28T17:27:47;9.70;53.40
25108;DHT22;13090;53.422;7.670;2023-02-28T17:32:49;9.60;53.70
25108;DHT22;13090;53.422;7.670;2023-02-28T17:37:51;9.50;53.80
25108;DHT22;13090;53.422;7.670;2023-02-28T17:42:55;9.40;53.80
25108;DHT22;13090;53.422;7.670;2023-02-28T17:47:57;9.30;54.00
25108;DHT22;13090;53.422;7.670;2023-02-28T17:53:00;9.20;54.10
25108;DHT22;13090;53.422;7.670;2023-02-28T17:58:04;9.10;54.20
25108;DHT22;13090;53.422;7.670;2023-02-28T18:03:06;9.00;54.20
25108;DHT22;13090;53.422;7.670;2023-02-28T18:08:09;8.80;54.30
25108;DHT22;13090;53.422;7.670;2023-02-28T18:13:13;8.60;54.50
25108;DHT22;13090;53.422;7.670;2023-02-28T18:18:15;8.50;54.50
25108;DHT22;13090;53.422;7.670;2023-02-28T18:23:17;8.40;55.30
25108;DHT22;13090;53.422;7.670;2023-02-28T18:28:21;8.20;54.90
25108;DHT22;13090;53.422;7.670;2023-02-28T18:33:23;8.00;55.10
25108;DHT22;13090;53.422;7.670;2023-02-28T18:38:25;7.90;55.10
25108;DHT22;13090;53.422;7.670;2023-02-28T18:43:31;7.70;55.10
25108;DHT22;13090;53.422;7.670;2023-02-28T18:48:34;7.50;55.30
25108;DHT22;13090;53.422;7.670;2023-02-28T18:53:38;7.40;55.60
25108;DHT22;13090;53.422;7.670;2023-02-28T18:58:42;7.20;56.00
25108;DHT22;13090;53.422;7.670;2023-02-28T19:03:44;7.00;56.40
25108;DHT22;13090;53.422;7.670;2023-02-28T19:08:47;6.90;56.80
25108;DHT22;13090;53.422;7.670;2023-02-28T19:13:50;6.90;57.10
25108;DHT22;13090;53.422;7.670;2023-02-28T19:18:53;6.80;57.50
25108;DHT22;13090;53.422;7.670;2023-02-28T19:23:55;6.70;57.50
25108;DHT22;13090;53.422;7.670;2023-02-28T19:29:01;6.60;57.80
25108;DHT22;13090;53.422;7.670;2023-02-28T19:34:03;6.50;58.10
25108;DHT22;13090;53.422;7.670;2023-02-28T19:39:05;6.50;58.00
25108;DHT22;13090;53.422;7.670;2023-02-28T19:44:09;6.40;58.10
25108;DHT22;13090;53.422;7.670;2023-02-28T19:49:11;6.30;58.20
25108;DHT22;13090;53.422;7.670;2023-02-28T19:54:13;6.20;58.30
25108;DHT22;13090;53.422;7.670;2023-02-28T19:59:16;6.10;58.50
25108;DHT22;13090;53.422;7.670;2023-02-28T20:04:22;6.00;59.00
25108;DHT22;13090;53.422;7.670;2023-02-28T20:09:29;5.90;59.50
25108;DHT22;13090;53.422;7.670;2023-02-28T20:14:32;5.90;59.20
25108;DHT22;13090;53.422;7.670;2023-02-28T20:19:35;5.80;59.30
25108;DHT22;13090;53.422;7.670;2023-02-28T20:24:37;5.70;59.40
25108;DHT22;13090;53.422;7.670;2023-02-28T20:29:40;5.60;59.50
25108;DHT22;13090;53.422;7.670;2023-02-28T20:34:43;5.50;60.00
25108;DHT22;13090;53.422;7.670;2023-02-28T20:39:45;5.50;60.50
25108;DHT22;13090;53.422;7.670;2023-02-28T20:44:48;5.40;60.40
25108;DHT22;13090;53.422;7.670;2023-02-28T20:49:50;5.40;60.80
25108;DHT22;13090;53.422;7.670;2023-02-28T20:54:53;5.30;60.50
25108;DHT22;13090;53.422;7.670;2023-02-28T20:59:56;5.20;60.80
25108;DHT22;13090;53.422;7.670;2023-02-28T21:04:58;5.10;61.30
25108;DHT22;13090;53.422;7.670;2023-02-28T21:10:00;5.10;61.40
25108;DHT22;13090;53.422;7.670;2023-02-28T21:15:05;5.00;61.90
25108;DHT22;13090;53.422;7.670;2023-02-28T21:20:08;4.90;62.50
25108;DHT22;13090;53.422;7.670;2023-02-28T21:25:11;4.80;62.40
25108;DHT22;13090;53.422;7.670;2023-02-28T21:30:16;4.80;62.30
25108;DHT22;13090;53.422;7.670;2023-02-28T21:35:18;4.70;62.60
25108;DHT22;13090;53.422;7.670;2023-02-28T21:40:20;4.60;62.60
25108;DHT22;13090;53.422;7.670;2023-02-28T21:45:24;4.60;62.90
25108;DHT22;13090;53.422;7.670;2023-02-28T21:50:26;4.50;63.10
25108;DHT22;13090;53.422;7.670;2023-02-28T21:55:28;4.50;63.10
25108;DHT22;13090;53.422;7.670;2023-02-28T22:00:32;4.50;63.30
25108;DHT22;13090;53.422;7.670;2023-02-28T22:05:34;4.40;63.40
25108;DHT22;13090;53.422;7.670;2023-02-28T22:10:36;4.40;63.50
25108;DHT22;13090;53.422;7.670;2023-02-28T22:15:40;4.40;63.60
25108;DHT22;13090;53.422;7.670;2023-02-28T22:20:42;4.30;63.90
25108;DHT22;13090;53.422;7.670;2023-02-28T22:25:44;4.30;63.90
25108;DHT22;13090;53.422;7.670;2023-02-28T22:30:48;4.20;64.10
25108;DHT22;13090;53.422;7.670;2023-02-28T22:35:51;4.10;64.50
25108;DHT22;13090;53.422;7.670;2023-02-28T22:40:55;4.10;64.50
25108;DHT22;13090;53.422;7.670;2023-02-28T22:46:02;4.10;64.80
25108;DHT22;13090;53.422;7.670;2023-02-28T22:51:05;4.00;65.10
25108;DHT22;13090;53.422;7.670;2023-02-28T22:56:09;4.00;65.40
25108;DHT22;13090;53.422;7.670;2023-02-28T23:01:15;3.90;64.00
25108;DHT22;13090;53.422;7.670;2023-02-28T23:06:21;3.90;64.80
25108;DHT22;13090;53.422;7.670;2023-02-28T23:11:25;3.90;65.10
25108;DHT22;13090;53.422;7.670;2023-02-28T23:16:31;3.80;65.30
25108;DHT22;13090;53.422;7.670;2023-02-28T23:21:35;3.70;65.40
25108;DHT22;13090;53.422;7.670;2023-02-28T23:26:39;3.70;65.20
25108;DHT22;13090;53.422;7.670;2023-02-28T23:31:43;3.60;65.40
25108;DHT22;13090;53.422;7.670;2023-02-28T23:36:46;3.60;65.70
25108;DHT22;13090;53.422;7.670;2023-02-28T23:41:48;3.60;65.80
25108;DHT22;13090;53.422;7.670;2023-02-28T23:46:52;3.50;66.00
25108;DHT22;13090;53.422;7.670;2023-02-28T23:51:54;3.50;66.40
25108;DHT22;13090;53.422;7.670;2023-02-28T23:56:57;3.30;66.10
